ADDS METAR Data INFO
IDs: Format: Raw Decoded Include TAF

Data at: 1045 UTC 19 Oct 2017

KHYA 190956Z 21005KT 5SM BR FEW005 08/08 A3025 RMK AO2 SLP243 T00830078 $
KHYA 190949Z 00000KT 5SM BR FEW005 08/08 A3025 RMK AO2 T00780078 $
KHYA 190938Z 00000KT 3SM BR OVC004 08/08 A3025 RMK AO2 T00780078 $
KHYA 190935Z 00000KT 1 1/4SM BR OVC004 08/08 A3025 RMK AO2 T00830078 $
KHYA 190920Z AUTO 00000KT 1/4SM FG VV004 08/08 A3025 RMK AO2 T00830078 $
KHYA 190905Z AUTO 00000KT 1/4SM FG VV005 08/08 A3025 RMK AO2 T00830078 $
KHYA 190856Z AUTO 00000KT 7SM BKN005 08/08 A3025 RMK AO2 SLP244 T00830078 55004
KHYA 190853Z AUTO 00000KT 2 1/2SM BR BKN005 08/08 A3025 RMK AO2 VIS 1/2V5
KHYA 190842Z AUTO 00000KT 3/4SM BR VV007 08/08 A3025 RMK AO2 VIS 1/4V3 T00830078
KHYA 190836Z AUTO 00000KT 1 1/2SM BR FEW008 08/08 A3025 RMK AO2 VIS 1/2V5 T00830078
KHYA 190756Z AUTO 00000KT 4SM BR SCT006 08/08 A3025 RMK AO2 SLP243 T00830078
KHYA 190751Z AUTO 00000KT 2 1/2SM BR SCT006 08/08 A3025 RMK AO2 VIS 1 1/2V4
KHYA 190740Z AUTO 00000KT 1 3/4SM BR OVC006 08/08 A3025 RMK AO2 T00830078
KHYA 190709Z AUTO 00000KT 3SM BR OVC006 08/08 A3025 RMK AO2 T00830078
KHYA 190656Z AUTO 00000KT 1/2SM FG VV006 08/08 A3026 RMK AO2 SLP247 T00830083
KHYA 190641Z AUTO 00000KT 1SM BR VV005 08/08 A3026 RMK AO2 VIS 1/4V4 T00830083
KHYA 190631Z AUTO 00000KT 1/4SM FG VV005 09/09 A3026 RMK AO2 T00890089
KHYA 190625Z AUTO 00000KT 1/2SM FG VV004 09/08 A3026 RMK AO2 T00890083
KHYA 190556Z AUTO 00000KT 1/4SM FG VV004 09/08 A3026 RMK AO2 SLP248 T00940083 10139 20089 56004
KHYA 190551Z AUTO 00000KT 1/2SM FG VV004 09/08 A3026 RMK AO2
KHYA 190542Z AUTO 00000KT 1/4SM FG VV004 09/09 A3026 RMK AO2 T00940089
KHYA 190529Z AUTO 00000KT 3/4SM BR VV004 09/08 A3027 RMK AO2 T00890083
KHYA 190527Z AUTO 00000KT 1 1/4SM BR SCT004 09/08 A3027 RMK AO2 T00940083
KHYA 190508Z AUTO 00000KT 1/2SM FG VV004 10/09 A3027 RMK AO2 VIS M1/4V2 T01000089
KHYA 190501Z AUTO 00000KT 1 1/4SM BR SCT004 10/09 A3027 RMK AO2 T01000094
KHYA 190456Z AUTO 00000KT 8SM SCT004 10/09 A3027 RMK AO2 SLP250 T01000094 402170056
KHYA 190356Z AUTO 00000KT 6SM BR CLR 12/12 A3027 RMK AO2 SLP252 T01220122
KHYA 190256Z AUTO 00000KT 9SM CLR 13/12 A3028 RMK AO2 SLP254 T01330122 50005
KHYA 190156Z 00000KT 9SM CLR 13/12 A3028 RMK AO2 SLP255 T01280117
KHYA 190056Z 23004KT 10SM CLR 13/12 A3028 RMK AO2 SLP254 T01280117
KHYA 182356Z 24003KT 10SM CLR 14/13 A3026 RMK AO2 SLP249 T01390128 10217 20133 51014
KHYA 182256Z 21004KT 10SM CLR 15/12 A3026 RMK AO2 SLP248 T01500122
KHYA 182156Z 24007KT 10SM CLR 17/13 A3023 RMK AO2 SLP239 T01670128
KHYA 182056Z 24006KT 10SM CLR 19/12 A3022 RMK AO2 SLP235 T01890117 51004
KHYA 181956Z 23008KT 10SM CLR 20/12 A3022 RMK AO2 SLP234 T02000117
KHYA 181856Z 03006KT 10SM CLR 21/09 A3021 RMK AO2 SLP232 T02060094
KHYA 181756Z VRB06KT 10SM CLR 22/09 A3021 RMK AO2 SLP231 T02170094 10217 20128 58017
KHYA 181656Z 24005KT 10SM CLR 21/09 A3023 RMK AO2 SLP239 T02060094
KHYA 181556Z 24006KT 10SM CLR 19/08 A3025 RMK AO2 SLP246 T01890083
KHYA 181456Z 29007KT 10SM CLR 18/07 A3026 RMK AO2 SLP247 T01830072 51007
KHYA 181356Z 24009KT 10SM CLR 17/08 A3025 RMK AO2 SLP246 T01720078
KHYA 181256Z 26008KT 10SM CLR 15/08 A3025 RMK AO2 SLP243 T01500078
KHYA 181156Z 25008KT 10SM CLR 13/07 A3024 RMK AO2 SLP240 T01280067 10128 20056 52007
KHYA 181056Z 22007KT 10SM CLR 11/05 A3023 RMK AO2 SLP236 T01060050
KHYA 180956Z 23009KT 10SM CLR 11/06 A3023 RMK AO2 SLP237 T01110061
KHYA 180856Z AUTO 24009KT 10SM CLR 11/07 A3022 RMK AO2 SLP233 T01060067 55007
KHYA 180756Z AUTO 23008KT 10SM CLR 09/07 A3022 RMK AO2 SLP233 T00940067
KHYA 180656Z AUTO 00000KT 10SM CLR 06/05 A3023 RMK AO2 SLP236 T00610050
KHYA 180556Z AUTO 27003KT 10SM CLR 09/06 A3024 RMK AO2 SLP240 T00940056 10106 20050 56007
KHYA 180456Z AUTO 24007KT 10SM CLR 10/06 A3024 RMK AO2 SLP241 T01000061 401280050
KHYA 180356Z AUTO 23008KT 10SM CLR 10/06 A3025 RMK AO2 SLP244 T01000061
KHYA 180256Z AUTO 00000KT 10SM CLR 06/04 A3026 RMK AO2 SLP247 T00560039 50005
KHYA 180156Z 22003KT 10SM CLR 07/04 A3026 RMK AO2 SLP248 T00670044
KHYA 180056Z 00000KT 10SM CLR 06/03 A3026 RMK AO2 SLP247 T00560033
KHYA 172356Z 21005KT 10SM CLR 07/04 A3024 RMK AO2 SLP242 T00720039 10128 20067 53005
KHYA 172256Z 00000KT 10SM CLR 07/04 A3025 RMK AO2 SLP243 T00720039